createdAt,value
2018-02-26T00:00:04.239Z,10.95
2018-02-26T00:02:34.087Z,9.27
2018-02-26T00:05:03.970Z,9.75
2018-02-26T00:07:33.046Z,8.80
2018-02-26T00:10:02.126Z,9.40
2018-02-26T00:12:31.969Z,9.65
2018-02-26T00:15:01.097Z,10.20
2018-02-26T00:17:30.210Z,11.52
2018-02-26T00:19:59.357Z,11.05
2018-02-26T00:22:41.304Z,10.52
2018-02-26T00:25:10.654Z,10.07
2018-02-26T00:27:39.742Z,9.55
2018-02-26T00:30:08.827Z,9.57
2018-02-26T00:32:37.913Z,10.60
2018-02-26T00:35:07.014Z,10.60
2018-02-26T00:37:36.118Z,11.43
2018-02-26T00:40:05.267Z,10.30
2018-02-26T00:42:35.177Z,9.80
2018-02-26T00:45:05.074Z,11.05
2018-02-26T00:47:34.162Z,10.65
2018-02-26T00:50:03.278Z,11.50
2018-02-26T00:52:32.369Z,11.12
2018-02-26T00:55:02.242Z,9.50
2018-02-26T00:57:31.329Z,11.73
2018-02-26T01:00:00.762Z,11.60
2018-02-26T01:02:29.845Z,9.93
2018-02-26T01:04:58.943Z,8.93
2018-02-26T01:07:28.977Z,9.55
2018-02-26T01:09:58.825Z,8.05
2018-02-26T01:12:27.902Z,9.90
2018-02-26T01:14:57.824Z,8.70
2018-02-26T01:17:26.906Z,10.65
2018-02-26T01:19:56.056Z,9.60
2018-02-26T01:22:25.906Z,9.60
2018-02-26T01:24:55.018Z,8.88
2018-02-26T01:27:24.142Z,8.45
2018-02-26T01:29:53.226Z,10.02
2018-02-26T01:32:23.158Z,8.93
2018-02-26T01:34:53.006Z,9.52
2018-02-26T01:37:22.194Z,8.52
2018-02-26T01:39:52.038Z,9.50
2018-02-26T01:42:21.109Z,9.45
2018-02-26T01:44:50.278Z,9.50
2018-02-26T01:47:19.495Z,9.57
2018-02-26T01:49:48.657Z,9.50
2018-02-26T01:52:18.510Z,9.10
2018-02-26T01:54:47.590Z,8.63
2018-02-26T01:57:16.669Z,8.57
2018-02-26T01:59:45.742Z,7.03
2018-02-26T02:02:14.817Z,7.90
2018-02-26T02:04:43.930Z,8.38
2018-02-26T02:07:13.009Z,7.53
2018-02-26T02:09:42.099Z,8.20
2018-02-26T02:12:11.182Z,8.48
2018-02-26T02:14:40.339Z,7.97
2018-02-26T02:17:09.465Z,8.07
2018-02-26T02:19:38.549Z,9.00
2018-02-26T02:22:07.622Z,6.90
2018-02-26T02:24:37.465Z,8.95
2018-02-26T02:27:06.590Z,9.50
2018-02-26T02:29:35.676Z,9.25
2018-02-26T02:32:04.749Z,8.05
2018-02-26T02:34:33.831Z,9.35
2018-02-26T02:37:02.907Z,8.40
2018-02-26T02:39:31.986Z,8.60
2018-02-26T02:42:01.077Z,8.10
2018-02-26T02:44:30.158Z,9.80
2018-02-26T02:46:59.369Z,9.52
2018-02-26T02:49:28.498Z,9.60
2018-02-26T02:51:57.586Z,10.35
2018-02-26T02:54:26.739Z,11.75
2018-02-26T02:56:55.869Z,11.20
2018-02-26T02:59:25.937Z,10.98
2018-02-26T03:01:55.017Z,11.60
2018-02-26T03:04:24.858Z,8.82
2018-02-26T03:06:53.965Z,8.82
2018-02-26T03:09:23.045Z,10.13
2018-02-26T03:11:52.130Z,9.07
2018-02-26T03:14:21.219Z,9.10
2018-02-26T03:16:50.328Z,8.18
2018-02-26T03:19:19.473Z,9.20
2018-02-26T03:21:48.549Z,9.15
2018-02-26T03:24:17.792Z,9.18
2018-02-26T03:26:46.871Z,9.60
2018-02-26T03:29:15.951Z,9.18
2018-02-26T03:31:45.806Z,9.05
2018-02-26T03:34:14.909Z,7.82
2018-02-26T03:36:44.051Z,8.60
2018-02-26T03:39:13.132Z,8.80
2018-02-26T03:41:42.246Z,8.75
2018-02-26T03:44:11.327Z,9.48
2018-02-26T03:46:41.238Z,9.45
2018-02-26T03:49:10.349Z,9.68
2018-02-26T03:51:39.427Z,9.10
2018-02-26T03:54:08.501Z,10.05
2018-02-26T03:56:37.634Z,10.75
2018-02-26T03:59:06.749Z,9.65
2018-02-26T04:01:35.829Z,10.13
2018-02-26T04:04:04.928Z,9.20
2018-02-26T04:06:34.774Z,10.20
2018-02-26T04:09:03.862Z,8.55
2018-02-26T04:11:33.712Z,10.77
2018-02-26T04:14:02.859Z,10.38
2018-02-26T04:16:31.941Z,10.80
2018-02-26T04:19:01.021Z,9.90
2018-02-26T04:21:30.865Z,10.65
2018-02-26T04:23:59.947Z,9.60
2018-02-26T04:26:30.549Z,11.45
2018-02-26T04:28:59.633Z,11.40
2018-02-26T04:31:28.718Z,13.60
2018-02-26T04:33:57.802Z,12.35
2018-02-26T04:36:26.917Z,9.73
2018-02-26T04:38:56.010Z,11.10
2018-02-26T04:41:25.103Z,12.18
2018-02-26T04:43:54.254Z,10.95
2018-02-26T04:46:23.338Z,11.10
2018-02-26T04:48:52.422Z,10.57
2018-02-26T04:51:21.518Z,11.00
2018-02-26T04:53:50.656Z,10.60
2018-02-26T04:56:19.738Z,11.73
2018-02-26T04:58:49.698Z,10.00
2018-02-26T05:01:18.820Z,11.20
2018-02-26T05:03:47.946Z,10.10
2018-02-26T05:06:17.037Z,11.23
2018-02-26T05:08:46.126Z,12.37
2018-02-26T05:11:15.230Z,10.85
2018-02-26T05:13:44.310Z,11.10
2018-02-26T05:16:13.454Z,12.02
2018-02-26T05:18:42.538Z,11.90
2018-02-26T05:21:12.389Z,11.30
2018-02-26T05:23:41.505Z,11.57
2018-02-26T05:26:10.593Z,11.30
2018-02-26T05:28:40.451Z,11.80
2018-02-26T05:31:09.562Z,11.07
2018-02-26T05:33:38.646Z,11.80
2018-02-26T05:36:07.740Z,11.00
2018-02-26T05:38:37.630Z,9.60
2018-02-26T05:41:06.783Z,10.55
2018-02-26T05:43:36.634Z,10.18
2018-02-26T05:46:05.760Z,9.43
2018-02-26T05:48:34.865Z,9.52
2018-02-26T05:51:03.954Z,10.25
2018-02-26T05:53:33.838Z,10.63
2018-02-26T05:56:02.918Z,9.90
2018-02-26T05:58:31.998Z,11.52
2018-02-26T06:01:04.682Z,11.55
2018-02-26T06:03:34.609Z,10.05
2018-02-26T06:06:03.697Z,10.13
2018-02-26T06:08:32.783Z,10.27
2018-02-26T06:11:01.866Z,11.00
2018-02-26T06:13:30.953Z,10.13
2018-02-26T06:16:00.803Z,9.80
2018-02-26T06:18:29.910Z,10.40
2018-02-26T06:20:59.119Z,10.27
2018-02-26T06:23:29.037Z,11.00
2018-02-26T06:25:58.171Z,9.60
2018-02-26T06:28:28.057Z,8.90
2018-02-26T06:30:57.137Z,10.32
2018-02-26T06:33:26.265Z,9.25
2018-02-26T06:35:55.504Z,9.10
2018-02-26T06:38:25.351Z,9.07
2018-02-26T06:40:54.458Z,8.40
2018-02-26T06:43:24.302Z,9.30
2018-02-26T06:45:53.450Z,9.15
2018-02-26T06:48:22.590Z,8.65
2018-02-26T06:50:51.667Z,9.32
2018-02-26T06:53:20.751Z,8.80
2018-02-26T06:55:49.830Z,9.27
2018-02-26T06:58:19.742Z,7.68
2018-02-26T07:00:48.822Z,8.32
2018-02-26T07:03:18.005Z,7.32
2018-02-26T07:05:47.229Z,8.30
2018-02-26T07:10:51.473Z,7.32
2018-02-26T07:13:20.673Z,7.53
2018-02-26T07:15:50.748Z,8.00
2018-02-26T07:18:19.830Z,8.00
2018-02-26T07:20:48.901Z,6.93
2018-02-26T07:23:18.738Z,7.47
2018-02-26T07:25:47.818Z,8.00
2018-02-26T07:28:16.893Z,7.70
2018-02-26T07:30:46.126Z,7.57
2018-02-26T07:33:15.265Z,8.30
2018-02-26T07:35:45.110Z,8.52
2018-02-26T07:38:14.193Z,8.68
2018-02-26T07:40:43.276Z,8.07
2018-02-26T07:43:12.358Z,6.87
2018-02-26T07:45:42.261Z,8.00
2018-02-26T07:48:12.134Z,5.50
2018-02-26T07:50:41.220Z,6.50
2018-02-26T07:53:11.057Z,7.07
2018-02-26T07:55:40.191Z,6.03
2018-02-26T07:58:09.270Z,5.45
2018-02-26T08:00:39.242Z,6.28
2018-02-26T08:03:09.062Z,6.28
2018-02-26T08:05:38.137Z,5.95
2018-02-26T08:08:07.980Z,5.37
2018-02-26T08:10:37.055Z,5.50
2018-02-26T08:13:06.129Z,5.22
2018-02-26T08:15:35.210Z,6.37
2018-02-26T08:18:04.286Z,5.90
2018-02-26T08:20:34.138Z,5.60
2018-02-26T08:23:04.005Z,6.30
2018-02-26T08:25:33.124Z,6.30
2018-02-26T08:28:02.200Z,5.22
2018-02-26T08:30:31.333Z,5.50
2018-02-26T08:33:00.402Z,5.32
2018-02-26T08:35:30.297Z,5.40
2018-02-26T08:37:59.379Z,5.53
2018-02-26T08:40:28.513Z,4.20
2018-02-26T08:42:57.650Z,5.15
2018-02-26T08:45:27.554Z,4.40
2018-02-26T08:47:56.632Z,5.32
2018-02-26T08:50:25.713Z,4.65
2018-02-26T08:52:55.553Z,6.55
2018-02-26T08:55:24.630Z,4.90
2018-02-26T08:57:54.469Z,6.03
2018-02-26T09:00:24.306Z,4.22
2018-02-26T09:02:54.266Z,3.83
2018-02-26T09:05:23.359Z,3.92
2018-02-26T09:07:52.440Z,5.00
2018-02-26T09:10:21.738Z,4.28
2018-02-26T09:12:50.814Z,4.32
2018-02-26T09:15:19.885Z,4.12
2018-02-26T09:17:49.753Z,3.87
2018-02-26T09:20:18.825Z,5.05
2018-02-26T09:22:48.669Z,5.82
2018-02-26T09:25:17.747Z,6.53
2018-02-26T09:27:47.662Z,4.45
2018-02-26T09:30:16.743Z,4.50
2018-02-26T09:32:45.869Z,3.75
2018-02-26T09:35:15.125Z,4.20
2018-02-26T09:37:44.965Z,3.30
2018-02-26T09:40:14.034Z,4.05
2018-02-26T09:42:43.110Z,3.80
2018-02-26T09:45:12.189Z,3.25
2018-02-26T09:47:42.029Z,3.62
2018-02-26T09:50:16.610Z,3.87
2018-02-26T09:52:45.723Z,4.00
2018-02-26T09:55:14.893Z,2.92
2018-02-26T09:57:43.962Z,3.00
2018-02-26T10:00:13.058Z,3.67
2018-02-26T10:02:42.138Z,3.53
2018-02-26T10:05:11.241Z,2.90
2018-02-26T10:07:40.315Z,2.75
2018-02-26T10:10:10.154Z,2.97
2018-02-26T10:12:40.149Z,3.10
2018-02-26T10:15:09.998Z,3.33
2018-02-26T10:17:39.073Z,2.80
2018-02-26T10:20:08.195Z,2.95
2018-02-26T10:22:37.340Z,3.28
2018-02-26T10:25:07.246Z,2.85
2018-02-26T10:27:36.355Z,3.30
2018-02-26T10:30:06.265Z,2.75
2018-02-26T10:32:35.338Z,3.05
2018-02-26T10:35:04.501Z,3.70
2018-02-26T10:37:33.573Z,3.70
2018-02-26T10:40:02.684Z,3.15
2018-02-26T10:42:31.765Z,3.00
2018-02-26T10:45:00.842Z,2.47
2018-02-26T10:47:29.998Z,3.15
2018-02-26T10:49:59.222Z,3.08
2018-02-26T10:52:28.290Z,3.08
2018-02-26T10:54:57.382Z,8.45
2018-02-26T10:57:26.520Z,3.10
2018-02-26T10:59:56.370Z,2.80
2018-02-26T11:02:25.514Z,3.95
2018-02-26T11:04:54.591Z,3.58
2018-02-26T11:07:23.672Z,3.42
2018-02-26T11:09:52.750Z,3.45
2018-02-26T11:12:21.890Z,6.55
2018-02-26T11:14:51.730Z,3.50
2018-02-26T11:17:21.566Z,3.25
2018-02-26T11:19:51.402Z,3.12
2018-02-26T11:22:20.473Z,4.07
2018-02-26T11:24:49.546Z,3.33
2018-02-26T11:27:18.622Z,3.10
2018-02-26T11:29:48.533Z,3.78
2018-02-26T11:32:17.609Z,3.67
2018-02-26T11:34:46.686Z,3.20
2018-02-26T11:37:15.795Z,3.20
2018-02-26T11:39:44.870Z,3.80
2018-02-26T11:42:13.954Z,3.70
2018-02-26T11:44:43.026Z,3.67
2018-02-26T11:47:12.167Z,3.85
2018-02-26T11:49:41.238Z,4.40
2018-02-26T11:52:10.366Z,4.10
2018-02-26T11:54:39.442Z,5.60
2018-02-26T11:57:09.278Z,4.70
2018-02-26T11:59:39.155Z,4.28
2018-02-26T12:02:08.236Z,4.10
2018-02-26T12:04:37.306Z,4.25
2018-02-26T12:07:06.386Z,4.12
2018-02-26T12:09:35.460Z,3.95
2018-02-26T12:12:04.539Z,3.90
2018-02-26T12:14:33.614Z,3.47
2018-02-26T12:17:02.685Z,4.20
2018-02-26T12:19:31.763Z,3.80
2018-02-26T12:22:00.841Z,3.67
2018-02-26T12:24:29.918Z,4.30
2018-02-26T12:26:58.997Z,4.15
2018-02-26T12:29:28.902Z,4.35
2018-02-26T12:31:57.982Z,4.78
2018-02-26T12:34:27.053Z,4.30
2018-02-26T12:36:56.900Z,4.45
2018-02-26T12:39:25.982Z,4.50
2018-02-26T12:41:55.846Z,4.90
2018-02-26T12:44:24.966Z,6.75
2018-02-26T12:46:54.269Z,4.72
2018-02-26T12:49:23.347Z,4.72
2018-02-26T12:51:53.190Z,3.62
2018-02-26T12:54:22.268Z,4.20
2018-02-26T12:56:51.398Z,3.78
2018-02-26T12:59:21.238Z,4.78
2018-02-26T13:01:51.081Z,3.90
2018-02-26T13:04:20.159Z,4.43
2018-02-26T13:06:50.042Z,3.50
2018-02-26T13:09:19.117Z,3.33
2018-02-26T13:11:48.205Z,4.40
2018-02-26T13:14:17.282Z,4.30
2018-02-26T13:16:46.361Z,3.47
2018-02-26T13:19:15.430Z,3.80
2018-02-26T13:21:44.502Z,3.62
2018-02-26T13:24:13.569Z,3.75
2018-02-26T13:26:43.528Z,4.45
2018-02-26T13:29:12.622Z,3.83
2018-02-26T13:31:41.706Z,3.60
2018-02-26T13:34:11.619Z,3.05
2018-02-26T13:36:40.700Z,3.22
2018-02-26T13:39:09.778Z,3.12
2018-02-26T13:41:38.882Z,3.03
2018-02-26T13:46:44.811Z,3.17
2018-02-26T13:49:13.958Z,2.72
2018-02-26T13:51:43.034Z,2.70
2018-02-26T13:54:12.113Z,2.85
2018-02-26T13:56:41.945Z,2.80
2018-02-26T13:59:11.080Z,2.95
2018-02-26T14:01:40.154Z,3.30
2018-02-26T14:04:09.994Z,2.58
2018-02-26T14:06:39.094Z,2.05
2018-02-26T14:09:09.001Z,3.17
2018-02-26T14:11:38.870Z,2.92
2018-02-26T14:14:07.943Z,2.72
2018-02-26T14:16:37.019Z,3.40
2018-02-26T14:19:06.094Z,2.75
2018-02-26T14:21:35.189Z,4.22
2018-02-26T14:24:05.063Z,3.20
2018-02-26T14:26:34.137Z,3.95
2018-02-26T14:29:03.973Z,2.70
2018-02-26T14:31:33.046Z,2.58
2018-02-26T14:34:02.120Z,3.58
2018-02-26T14:36:31.198Z,3.17
2018-02-26T14:39:00.337Z,2.72
2018-02-26T14:41:29.414Z,2.85
2018-02-26T14:43:59.288Z,2.28
2018-02-26T14:46:28.390Z,3.80
2018-02-26T14:48:57.462Z,2.90
2018-02-26T14:51:26.590Z,2.70
2018-02-26T14:53:55.670Z,3.10
2018-02-26T14:56:25.521Z,3.00
2018-02-26T14:58:54.872Z,3.35
2018-02-26T15:01:23.965Z,2.65
2018-02-26T15:03:53.041Z,3.10
2018-02-26T15:06:22.994Z,2.90
2018-02-26T15:08:52.069Z,3.10
2018-02-26T15:11:21.910Z,3.60
2018-02-26T15:13:51.758Z,4.25
2018-02-26T15:16:20.893Z,3.08
2018-02-26T15:18:49.976Z,7.45
2018-02-26T15:21:19.062Z,8.23
2018-02-26T15:23:48.912Z,5.72
2018-02-26T15:26:17.998Z,6.18
2018-02-26T15:28:47.891Z,9.18
2018-02-26T15:31:16.990Z,3.10
2018-02-26T15:33:46.064Z,2.55
2018-02-26T15:36:15.141Z,1.80
2018-02-26T15:38:44.213Z,1.95
2018-02-26T15:41:13.326Z,2.25
2018-02-26T15:43:42.398Z,1.60
2018-02-26T15:46:12.305Z,1.60
2018-02-26T15:48:43.102Z,1.70
2018-02-26T15:51:12.170Z,2.30
2018-02-26T15:53:42.014Z,2.55
2018-02-26T15:56:11.930Z,3.25
2018-02-26T15:58:41.779Z,2.25
2018-02-26T16:01:10.853Z,2.40
2018-02-26T16:03:39.930Z,3.05
2018-02-26T16:06:09.038Z,2.33
2018-02-26T16:08:38.114Z,2.62
2018-02-26T16:11:08.273Z,2.05
2018-02-26T16:13:37.349Z,3.03
2018-02-26T16:16:07.224Z,1.90
2018-02-26T16:18:36.293Z,2.72
2018-02-26T16:21:06.190Z,1.90
2018-02-26T16:23:35.363Z,2.05
2018-02-26T16:26:04.777Z,2.30
2018-02-26T16:28:33.882Z,1.37
2018-02-26T16:31:02.974Z,1.67
2018-02-26T16:33:32.834Z,1.85
2018-02-26T16:36:02.046Z,1.37
2018-02-26T16:38:31.123Z,1.80
2018-02-26T16:41:00.962Z,1.95
2018-02-26T16:43:30.031Z,1.90
2018-02-26T16:45:59.109Z,2.15
2018-02-26T16:48:28.186Z,2.33
2018-02-26T16:50:57.290Z,4.90
2018-02-26T16:53:27.134Z,3.47
2018-02-26T16:55:56.211Z,2.10
2018-02-26T16:58:26.090Z,2.23
2018-02-26T17:00:55.167Z,2.25
2018-02-26T17:03:25.017Z,2.58
2018-02-26T17:05:54.094Z,2.30
2018-02-26T17:08:24.001Z,2.33
2018-02-26T17:10:53.194Z,1.80
2018-02-26T17:13:22.334Z,3.25
2018-02-26T17:15:51.406Z,2.60
2018-02-26T17:18:20.481Z,1.90
2018-02-26T17:20:49.595Z,2.80
2018-02-26T17:23:18.678Z,3.20
2018-02-26T17:25:48.528Z,2.10
2018-02-26T17:28:17.667Z,2.10
2018-02-26T17:30:46.750Z,3.00
2018-02-26T17:33:15.862Z,3.53
2018-02-26T17:35:44.940Z,3.55
2018-02-26T17:38:14.014Z,4.03
2018-02-26T17:40:43.081Z,3.20
2018-02-26T17:43:12.352Z,3.53
2018-02-26T17:45:41.422Z,2.83
2018-02-26T17:48:10.574Z,2.90
2018-02-26T17:50:39.650Z,2.70
2018-02-26T17:53:12.698Z,2.22
2018-02-26T17:55:42.010Z,3.00
2018-02-26T17:58:11.090Z,2.62
2018-02-26T18:00:40.406Z,4.22
2018-02-26T18:03:09.498Z,4.62
2018-02-26T18:05:38.638Z,5.65
2018-02-26T18:08:07.745Z,3.25
2018-02-26T18:10:36.856Z,4.20
2018-02-26T18:13:05.934Z,3.62
2018-02-26T18:15:35.014Z,2.90
2018-02-26T18:18:04.087Z,2.95
2018-02-26T18:20:33.236Z,3.50
2018-02-26T18:23:03.073Z,3.10
2018-02-26T18:25:32.947Z,3.00
2018-02-26T18:28:02.022Z,2.80
2018-02-26T19:03:08.650Z,6.25
2018-02-26T19:05:37.748Z,12.05
2018-02-26T19:08:06.824Z,7.75
2018-02-26T19:10:36.665Z,3.60
2018-02-26T19:13:06.598Z,3.10
2018-02-26T19:15:35.666Z,4.80
2018-02-26T19:18:04.734Z,5.15
2018-02-26T19:20:33.813Z,6.25
2018-02-26T19:23:03.788Z,2.92
2018-02-26T19:25:32.842Z,3.05
2018-02-26T19:28:01.963Z,3.72
2018-02-26T19:30:31.801Z,5.85
2018-02-26T19:33:01.639Z,4.55
2018-02-26T19:35:30.710Z,4.15
2018-02-26T19:37:59.889Z,4.97
2018-02-26T19:40:28.966Z,3.72
2018-02-26T19:42:58.037Z,8.75
2018-02-26T19:45:27.991Z,4.10
2018-02-26T19:47:57.826Z,2.90
2018-02-26T19:50:27.661Z,3.10
2018-02-26T19:52:56.743Z,3.00
2018-02-26T19:55:26.654Z,4.25
2018-02-26T19:57:55.728Z,3.97
2018-02-26T20:00:24.874Z,3.85
2018-02-26T20:02:53.942Z,3.55
2018-02-26T20:05:23.824Z,3.95
2018-02-26T20:07:53.286Z,5.20
2018-02-26T20:10:22.394Z,3.97
2018-02-26T20:12:51.475Z,5.05
2018-02-26T20:15:21.322Z,7.75
2018-02-26T20:17:50.466Z,4.80
2018-02-26T20:20:19.996Z,4.18
2018-02-26T20:22:49.174Z,4.28
2018-02-26T20:25:18.243Z,3.62
2018-02-26T20:27:49.088Z,3.50
2018-02-26T20:30:18.926Z,3.45
2018-02-26T20:32:48.026Z,5.30
2018-02-26T20:35:17.177Z,3.95
2018-02-26T20:37:46.270Z,3.70
2018-02-26T20:40:16.110Z,3.97
2018-02-26T20:42:45.950Z,4.35
2018-02-26T20:45:15.027Z,3.40
2018-02-26T20:47:44.111Z,3.37
2018-02-26T20:50:13.237Z,5.53
2018-02-26T20:52:42.317Z,4.43
2018-02-26T20:55:11.391Z,3.92
2018-02-26T20:57:40.517Z,3.90
2018-02-26T21:00:09.595Z,3.55
2018-02-26T21:02:39.438Z,3.30
2018-02-26T21:05:09.269Z,4.05
2018-02-26T21:07:38.354Z,3.65
2018-02-26T21:10:08.233Z,2.78
2018-02-26T21:12:37.341Z,2.90
2018-02-26T21:15:06.422Z,4.10
2018-02-26T21:17:36.373Z,3.42
2018-02-26T21:20:05.490Z,3.00
2018-02-26T21:22:34.566Z,3.60
2018-02-26T21:25:04.410Z,3.50
2018-02-26T21:27:33.478Z,3.33
2018-02-26T21:30:03.357Z,3.78
2018-02-26T21:32:32.481Z,3.37
2018-02-26T21:35:01.555Z,3.00
2018-02-26T21:37:31.462Z,4.43
2018-02-26T21:40:00.537Z,3.75
2018-02-26T21:42:29.614Z,3.78
2018-02-26T21:44:58.946Z,3.92
2018-02-26T21:47:28.470Z,3.65
2018-02-26T21:49:57.541Z,4.00
2018-02-26T21:52:27.383Z,3.42
2018-02-26T21:54:56.494Z,3.65
2018-02-26T21:57:25.570Z,4.00
2018-02-26T21:59:55.410Z,3.90
2018-02-26T22:02:25.251Z,4.22
2018-02-26T22:04:54.494Z,4.82
2018-02-26T22:07:23.564Z,3.80
2018-02-26T22:09:53.410Z,4.43
2018-02-26T22:12:22.476Z,4.97
2018-02-26T22:14:51.554Z,4.60
2018-02-26T22:17:20.669Z,5.00
2018-02-26T22:19:49.737Z,4.45
2018-02-26T22:22:19.582Z,4.70
2018-02-26T22:24:48.666Z,4.10
2018-02-26T22:27:18.506Z,5.82
2018-02-26T22:29:48.346Z,5.50
2018-02-26T22:32:17.490Z,4.93
2018-02-26T22:34:46.562Z,4.72
2018-02-26T22:37:15.682Z,5.25
2018-02-26T22:39:44.757Z,4.70
2018-02-26T22:42:13.839Z,5.05
2018-02-26T22:44:42.915Z,5.45
2018-02-26T22:47:11.994Z,5.62
2018-02-26T22:49:41.866Z,5.10
2018-02-26T22:52:10.945Z,6.20
2018-02-26T22:54:40.965Z,7.03
2018-02-26T22:57:10.874Z,6.62
2018-02-26T22:59:41.478Z,5.40
2018-02-26T23:02:10.550Z,4.90
2018-02-26T23:04:39.710Z,4.60
2018-02-26T23:07:08.781Z,4.70
2018-02-26T23:09:37.853Z,3.90
2018-02-26T23:12:06.962Z,4.55
2018-02-26T23:14:37.573Z,4.72
2018-02-26T23:17:06.679Z,4.37
2018-02-26T23:19:35.782Z,4.20
2018-02-26T23:22:04.860Z,4.90
2018-02-26T23:24:34.810Z,5.15
2018-02-26T23:27:04.641Z,5.80
2018-02-26T23:29:33.709Z,5.87
2018-02-26T23:32:02.787Z,6.53
2018-02-26T23:34:31.862Z,5.43
2018-02-26T23:37:00.990Z,6.00
2018-02-26T23:39:30.133Z,7.53
2018-02-26T23:41:59.214Z,5.97
2018-02-26T23:44:28.340Z,5.57
2018-02-26T23:46:58.060Z,5.50
2018-02-26T23:49:27.146Z,5.65
2018-02-26T23:51:56.227Z,4.35
2018-02-26T23:54:43.205Z,4.90
2018-02-26T23:57:12.352Z,5.20
2018-02-26T23:59:41.437Z,6.03
